sensor_id;sensor_type;location;lat;lon;timestamp;pressure;altitude;pressure_sealevel;temperature;humidity
54872;BME280;43914;57.680;11.982;2024-01-06T00:01:11;100757.08;;;-12.41;100.00
54872;BME280;43914;57.680;11.982;2024-01-06T00:03:37;100761.21;;;-12.40;100.00
54872;BME280;43914;57.680;11.982;2024-01-06T00:06:03;100764.52;;;-12.41;100.00
54872;BME280;43914;57.680;11.982;2024-01-06T00:08:28;100770.89;;;-12.40;100.00
54872;BME280;43914;57.680;11.982;2024-01-06T00:10:54;100774.31;;;-12.40;100.00
54872;BME280;43914;57.680;11.982;2024-01-06T00:13:20;100776.38;;;-12.39;100.00
54872;BME280;43914;57.680;11.982;2024-01-06T00:15:45;100782.66;;;-12.42;100.00
54872;BME280;43914;57.680;11.982;2024-01-06T00:18:11;100786.81;;;-12.42;100.00
54872;BME280;43914;57.680;11.982;2024-01-06T00:20:37;100792.17;;;-12.42;100.00
54872;BME280;43914;57.680;11.982;2024-01-06T00:23:02;100789.23;;;-12.42;100.00
54872;BME280;43914;57.680;11.982;2024-01-06T00:25:28;100789.45;;;-12.44;100.00
54872;BME280;43914;57.680;11.982;2024-01-06T00:27:53;100797.39;;;-12.44;100.00
54872;BME280;43914;57.680;11.982;2024-01-06T00:30:19;100799.80;;;-12.44;100.00
54872;BME280;43914;57.680;11.982;2024-01-06T00:32:44;100797.95;;;-12.46;100.00
54872;BME280;43914;57.680;11.982;2024-01-06T00:35:10;100801.75;;;-12.46;100.00
54872;BME280;43914;57.680;11.982;2024-01-06T00:37:35;100806.35;;;-12.44;100.00
54872;BME280;43914;57.680;11.982;2024-01-06T00:40:01;100811.70;;;-12.44;100.00
54872;BME280;43914;57.680;11.982;2024-01-06T00:42:27;100816.22;;;-12.45;100.00
54872;BME280;43914;57.680;11.982;2024-01-06T00:44:53;100815.75;;;-12.47;100.00
54872;BME280;43914;57.680;11.982;2024-01-06T00:47:19;100821.29;;;-12.47;100.00
54872;BME280;43914;57.680;11.982;2024-01-06T00:49:47;100821.30;;;-12.48;100.00
54872;BME280;43914;57.680;11.982;2024-01-06T00:52:13;100819.93;;;-12.49;100.00
54872;BME280;43914;57.680;11.982;2024-01-06T00:54:39;100821.17;;;-12.51;100.00
54872;BME280;43914;57.680;11.982;2024-01-06T00:57:04;100821.90;;;-12.52;100.00
54872;BME280;43914;57.680;11.982;2024-01-06T00:59:30;100825.89;;;-12.53;100.00
54872;BME280;43914;57.680;11.982;2024-01-06T01:01:55;100830.24;;;-12.54;100.00
54872;BME280;43914;57.680;11.982;2024-01-06T01:04:21;100836.15;;;-12.56;100.00
54872;BME280;43914;57.680;11.982;2024-01-06T01:06:46;100838.42;;;-12.58;100.00
54872;BME280;43914;57.680;11.982;2024-01-06T01:09:12;100847.05;;;-12.58;100.00
54872;BME280;43914;57.680;11.982;2024-01-06T01:11:41;100845.00;;;-12.58;100.00
54872;BME280;43914;57.680;11.982;2024-01-06T01:14:06;100846.23;;;-12.59;100.00
54872;BME280;43914;57.680;11.982;2024-01-06T01:16:32;100846.46;;;-12.62;100.00
54872;BME280;43914;57.680;11.982;2024-01-06T01:18:58;100850.45;;;-12.63;100.00
54872;BME280;43914;57.680;11.982;2024-01-06T01:21:24;100850.30;;;-12.65;100.00
54872;BME280;43914;57.680;11.982;2024-01-06T01:23:49;100850.67;;;-12.66;100.00
54872;BME280;43914;57.680;11.982;2024-01-06T01:26:15;100848.48;;;-12.68;100.00
54872;BME280;43914;57.680;11.982;2024-01-06T01:28:41;100841.95;;;-12.69;100.00
54872;BME280;43914;57.680;11.982;2024-01-06T01:31:06;100841.49;;;-12.72;100.00
54872;BME280;43914;57.680;11.982;2024-01-06T01:33:32;100841.23;;;-12.75;100.00
54872;BME280;43914;57.680;11.982;2024-01-06T01:35:57;100849.69;;;-12.76;100.00
54872;BME280;43914;57.680;11.982;2024-01-06T01:38:23;100848.39;;;-12.80;100.00
54872;BME280;43914;57.680;11.982;2024-01-06T01:40:48;100854.10;;;-12.81;100.00
54872;BME280;43914;57.680;11.982;2024-01-06T01:43:18;100854.15;;;-12.83;100.00
54872;BME280;43914;57.680;11.982;2024-01-06T01:45:43;100857.77;;;-12.83;100.00
54872;BME280;43914;57.680;11.982;2024-01-06T01:48:09;100864.33;;;-12.83;100.00
54872;BME280;43914;57.680;11.982;2024-01-06T01:50:35;100867.83;;;-12.86;100.00
54872;BME280;43914;57.680;11.982;2024-01-06T01:53:01;100871.81;;;-12.86;100.00
54872;BME280;43914;57.680;11.982;2024-01-06T01:55:27;100874.58;;;-12.87;100.00
54872;BME280;43914;57.680;11.982;2024-01-06T01:57:53;100872.73;;;-12.89;100.00
54872;BME280;43914;57.680;11.982;2024-01-06T02:00:19;100874.29;;;-12.89;100.00
54872;BME280;43914;57.680;11.982;2024-01-06T02:02:45;100877.41;;;-12.90;100.00
54872;BME280;43914;57.680;11.982;2024-01-06T02:05:10;100876.92;;;-12.91;100.00
54872;BME280;43914;57.680;11.982;2024-01-06T02:07:36;100875.92;;;-12.93;100.00
54872;BME280;43914;57.680;11.982;2024-01-06T02:10:01;100879.19;;;-12.92;100.00
54872;BME280;43914;57.680;11.982;2024-01-06T02:12:27;100881.08;;;-12.92;100.00
54872;BME280;43914;57.680;11.982;2024-01-06T02:14:52;100881.42;;;-12.92;100.00
54872;BME280;43914;57.680;11.982;2024-01-06T02:17:18;100881.63;;;-12.94;100.00
54872;BME280;43914;57.680;11.982;2024-01-06T02:19:43;100887.66;;;-12.94;100.00
54872;BME280;43914;57.680;11.982;2024-01-06T02:22:09;100891.13;;;-12.95;100.00
54872;BME280;43914;57.680;11.982;2024-01-06T02:24:34;100889.40;;;-12.95;100.00
54872;BME280;43914;57.680;11.982;2024-01-06T02:27:00;100895.08;;;-12.94;100.00
54872;BME280;43914;57.680;11.982;2024-01-06T02:29:25;100894.41;;;-12.95;100.00
54872;BME280;43914;57.680;11.982;2024-01-06T02:31:51;100894.93;;;-12.96;100.00
54872;BME280;43914;57.680;11.982;2024-01-06T02:34:16;100895.79;;;-12.95;100.00
54872;BME280;43914;57.680;11.982;2024-01-06T02:36:42;100899.59;;;-12.95;100.00
54872;BME280;43914;57.680;11.982;2024-01-06T02:39:07;100903.73;;;-12.96;100.00
54872;BME280;43914;57.680;11.982;2024-01-06T02:41:33;100904.98;;;-12.98;100.00
54872;BME280;43914;57.680;11.982;2024-01-06T02:43:58;100905.15;;;-12.97;100.00
54872;BME280;43914;57.680;11.982;2024-01-06T02:46:24;100900.47;;;-12.96;100.00
54872;BME280;43914;57.680;11.982;2024-01-06T02:48:49;100901.30;;;-12.95;100.00
54872;BME280;43914;57.680;11.982;2024-01-06T02:51:15;100906.50;;;-12.96;100.00
54872;BME280;43914;57.680;11.982;2024-01-06T02:53:40;100899.25;;;-12.96;100.00
54872;BME280;43914;57.680;11.982;2024-01-06T02:56:12;100895.45;;;-12.96;100.00
54872;BME280;43914;57.680;11.982;2024-01-06T02:58:38;100894.37;;;-12.93;100.00
54872;BME280;43914;57.680;11.982;2024-01-06T03:01:04;100894.55;;;-12.93;100.00
54872;BME280;43914;57.680;11.982;2024-01-06T03:03:30;100893.86;;;-12.93;100.00
54872;BME280;43914;57.680;11.982;2024-01-06T03:05:55;100899.20;;;-12.92;100.00
54872;BME280;43914;57.680;11.982;2024-01-06T03:08:23;100900.38;;;-12.92;100.00
54872;BME280;43914;57.680;11.982;2024-01-06T03:10:49;100899.00;;;-12.91;100.00
54872;BME280;43914;57.680;11.982;2024-01-06T03:13:14;100906.23;;;-12.91;100.00
54872;BME280;43914;57.680;11.982;2024-01-06T03:15:40;100910.38;;;-12.91;100.00
54872;BME280;43914;57.680;11.982;2024-01-06T03:18:05;100912.10;;;-12.90;100.00
54872;BME280;43914;57.680;11.982;2024-01-06T03:20:31;100914.33;;;-12.90;100.00
54872;BME280;43914;57.680;11.982;2024-01-06T03:22:57;100918.98;;;-12.90;100.00
54872;BME280;43914;57.680;11.982;2024-01-06T03:25:22;100925.91;;;-12.91;100.00
54872;BME280;43914;57.680;11.982;2024-01-06T03:27:48;100926.23;;;-12.90;100.00
54872;BME280;43914;57.680;11.982;2024-01-06T03:30:13;100930.34;;;-12.88;100.00
54872;BME280;43914;57.680;11.982;2024-01-06T03:32:39;100928.27;;;-12.88;100.00
54872;BME280;43914;57.680;11.982;2024-01-06T03:35:05;100932.05;;;-12.87;100.00
54872;BME280;43914;57.680;11.982;2024-01-06T03:37:32;100932.58;;;-12.88;100.00
54872;BME280;43914;57.680;11.982;2024-01-06T03:39:58;100934.13;;;-12.88;100.00
54872;BME280;43914;57.680;11.982;2024-01-06T03:42:24;100934.67;;;-12.89;100.00
54872;BME280;43914;57.680;11.982;2024-01-06T03:44:49;100936.24;;;-12.91;100.00
54872;BME280;43914;57.680;11.982;2024-01-06T03:47:15;100942.98;;;-12.91;100.00
54872;BME280;43914;57.680;11.982;2024-01-06T03:49:40;100949.38;;;-12.92;100.00
54872;BME280;43914;57.680;11.982;2024-01-06T03:52:06;100949.41;;;-12.93;100.00
54872;BME280;43914;57.680;11.982;2024-01-06T03:54:31;100951.64;;;-12.92;100.00
54872;BME280;43914;57.680;11.982;2024-01-06T03:56:57;100956.63;;;-12.92;100.00
54872;BME280;43914;57.680;11.982;2024-01-06T03:59:22;100952.32;;;-12.93;100.00
54872;BME280;43914;57.680;11.982;2024-01-06T04:01:48;100951.84;;;-12.94;100.00
54872;BME280;43914;57.680;11.982;2024-01-06T04:04:13;100952.86;;;-12.94;100.00
54872;BME280;43914;57.680;11.982;2024-01-06T04:06:39;100959.08;;;-12.93;100.00
54872;BME280;43914;57.680;11.982;2024-01-06T04:09:04;100959.26;;;-12.94;100.00
54872;BME280;43914;57.680;11.982;2024-01-06T04:11:30;100956.16;;;-12.94;100.00
54872;BME280;43914;57.680;11.982;2024-01-06T04:13:56;100958.89;;;-12.94;100.00
54872;BME280;43914;57.680;11.982;2024-01-06T04:16:21;100957.70;;;-12.94;100.00
54872;BME280;43914;57.680;11.982;2024-01-06T04:18:47;100959.10;;;-12.95;100.00
54872;BME280;43914;57.680;11.982;2024-01-06T04:21:12;100961.67;;;-12.94;100.00
54872;BME280;43914;57.680;11.982;2024-01-06T04:23:38;100961.84;;;-12.94;100.00
54872;BME280;43914;57.680;11.982;2024-01-06T04:26:03;100963.88;;;-12.92;100.00
54872;BME280;43914;57.680;11.982;2024-01-06T04:28:30;100966.27;;;-12.91;100.00
54872;BME280;43914;57.680;11.982;2024-01-06T04:30:56;100966.80;;;-12.92;100.00
54872;BME280;43914;57.680;11.982;2024-01-06T04:33:21;100969.86;;;-12.90;100.00
54872;BME280;43914;57.680;11.982;2024-01-06T04:35:46;100971.59;;;-12.90;100.00
54872;BME280;43914;57.680;11.982;2024-01-06T04:38:12;100971.06;;;-12.89;100.00
54872;BME280;43914;57.680;11.982;2024-01-06T04:40:37;100970.70;;;-12.88;100.00
54872;BME280;43914;57.680;11.982;2024-01-06T04:43:03;100975.53;;;-12.88;100.00
54872;BME280;43914;57.680;11.982;2024-01-06T04:45:29;100974.00;;;-12.89;100.00
54872;BME280;43914;57.680;11.982;2024-01-06T04:47:54;100968.52;;;-12.90;100.00
54872;BME280;43914;57.680;11.982;2024-01-06T04:50:20;100967.48;;;-12.90;100.00
54872;BME280;43914;57.680;11.982;2024-01-06T04:52:45;100969.87;;;-12.90;100.00
54872;BME280;43914;57.680;11.982;2024-01-06T04:55:11;100973.31;;;-12.90;100.00
54872;BME280;43914;57.680;11.982;2024-01-06T04:57:37;100970.19;;;-12.89;100.00
54872;BME280;43914;57.680;11.982;2024-01-06T05:00:04;100972.95;;;-12.88;100.00
54872;BME280;43914;57.680;11.982;2024-01-06T05:02:30;100968.11;;;-12.88;100.00
54872;BME280;43914;57.680;11.982;2024-01-06T05:04:55;100973.09;;;-12.87;100.00
54872;BME280;43914;57.680;11.982;2024-01-06T05:07:21;100976.22;;;-12.88;100.00
54872;BME280;43914;57.680;11.982;2024-01-06T05:09:47;100977.06;;;-12.87;100.00
54872;BME280;43914;57.680;11.982;2024-01-06T05:12:13;100978.64;;;-12.88;100.00
54872;BME280;43914;57.680;11.982;2024-01-06T05:14:38;100981.58;;;-12.89;100.00
54872;BME280;43914;57.680;11.982;2024-01-06T05:17:04;100978.31;;;-12.89;100.00
54872;BME280;43914;57.680;11.982;2024-01-06T05:19:31;100984.00;;;-12.89;100.00
54872;BME280;43914;57.680;11.982;2024-01-06T05:21:57;100982.99;;;-12.91;100.00
54872;BME280;43914;57.680;11.982;2024-01-06T05:24:23;100987.65;;;-12.91;100.00
54872;BME280;43914;57.680;11.982;2024-01-06T05:26:48;100986.31;;;-12.92;100.00
54872;BME280;43914;57.680;11.982;2024-01-06T05:29:14;100986.67;;;-12.93;100.00
54872;BME280;43914;57.680;11.982;2024-01-06T05:31:40;100990.12;;;-12.94;100.00
54872;BME280;43914;57.680;11.982;2024-01-06T05:34:05;100991.00;;;-12.95;100.00
54872;BME280;43914;57.680;11.982;2024-01-06T05:36:30;101000.83;;;-12.94;100.00
54872;BME280;43914;57.680;11.982;2024-01-06T05:38:56;101009.81;;;-12.95;100.00
54872;BME280;43914;57.680;11.982;2024-01-06T05:41:21;101013.60;;;-12.96;100.00
54872;BME280;43914;57.680;11.982;2024-01-06T05:43:47;101018.13;;;-12.97;100.00
54872;BME280;43914;57.680;11.982;2024-01-06T05:46:26;101018.86;;;-13.00;100.00
54872;BME280;43914;57.680;11.982;2024-01-06T05:48:51;101018.73;;;-13.02;100.00
54872;BME280;43914;57.680;11.982;2024-01-06T05:51:17;101020.29;;;-13.02;100.00
54872;BME280;43914;57.680;11.982;2024-01-06T05:53:42;101021.00;;;-13.04;100.00
54872;BME280;43914;57.680;11.982;2024-01-06T05:56:08;101025.51;;;-13.05;100.00
54872;BME280;43914;57.680;11.982;2024-01-06T05:58:35;101023.97;;;-13.06;100.00
54872;BME280;43914;57.680;11.982;2024-01-06T06:01:01;101027.95;;;-13.07;100.00
54872;BME280;43914;57.680;11.982;2024-01-06T06:03:27;101035.88;;;-13.06;100.00
54872;BME280;43914;57.680;11.982;2024-01-06T06:05:52;101042.08;;;-13.06;100.00
54872;BME280;43914;57.680;11.982;2024-01-06T06:08:18;101046.52;;;-13.04;100.00
54872;BME280;43914;57.680;11.982;2024-01-06T06:10:44;101052.56;;;-13.03;100.00
54872;BME280;43914;57.680;11.982;2024-01-06T06:13:37;101058.61;;;-13.05;100.00
54872;BME280;43914;57.680;11.982;2024-01-06T06:16:04;101061.71;;;-13.04;100.00
54872;BME280;43914;57.680;11.982;2024-01-06T06:18:30;101064.28;;;-13.03;100.00
54872;BME280;43914;57.680;11.982;2024-01-06T06:20:56;101057.83;;;-13.09;100.00
54872;BME280;43914;57.680;11.982;2024-01-06T06:23:22;101071.56;;;-13.05;100.00
54872;BME280;43914;57.680;11.982;2024-01-06T06:25:50;101067.14;;;-13.09;100.00
54872;BME280;43914;57.680;11.982;2024-01-06T06:28:16;101080.88;;;-13.06;100.00
54872;BME280;43914;57.680;11.982;2024-01-06T06:30:45;101080.40;;;-13.08;100.00
54872;BME280;43914;57.680;11.982;2024-01-06T06:33:10;101084.38;;;-13.10;100.00
54872;BME280;43914;57.680;11.982;2024-01-06T06:35:36;101087.14;;;-13.09;100.00
54872;BME280;43914;57.680;11.982;2024-01-06T06:38:02;101087.15;;;-13.09;100.00
54872;BME280;43914;57.680;11.982;2024-01-06T06:40:27;101091.98;;;-13.09;100.00
54872;BME280;43914;57.680;11.982;2024-01-06T06:42:54;101095.08;;;-13.09;100.00
54872;BME280;43914;57.680;11.982;2024-01-06T06:45:19;101094.91;;;-13.09;100.00
54872;BME280;43914;57.680;11.982;2024-01-06T06:47:48;101102.49;;;-13.10;100.00
54872;BME280;43914;57.680;11.982;2024-01-06T06:50:17;101108.70;;;-13.09;100.00
54872;BME280;43914;57.680;11.982;2024-01-06T06:52:44;101109.92;;;-13.10;100.00
54872;BME280;43914;57.680;11.982;2024-01-06T06:55:09;101122.81;;;-13.07;100.00
54872;BME280;43914;57.680;11.982;2024-01-06T06:57:36;101122.82;;;-13.07;100.00
54872;BME280;43914;57.680;11.982;2024-01-06T07:00:06;101128.67;;;-13.07;100.00
54872;BME280;43914;57.680;11.982;2024-01-06T07:02:35;101129.21;;;-13.08;100.00
54872;BME280;43914;57.680;11.982;2024-01-06T07:05:00;101135.94;;;-13.08;100.00
54872;BME280;43914;57.680;11.982;2024-01-06T07:07:26;101137.52;;;-13.11;100.00
54872;BME280;43914;57.680;11.982;2024-01-06T07:09:51;101144.24;;;-13.10;100.00
54872;BME280;43914;57.680;11.982;2024-01-06T07:12:17;101144.59;;;-13.11;100.00
54872;BME280;43914;57.680;11.982;2024-01-06T07:14:46;101148.43;;;-13.14;100.00
54872;BME280;43914;57.680;11.982;2024-01-06T07:17:12;101153.30;;;-13.16;100.00
54872;BME280;43914;57.680;11.982;2024-01-06T07:19:38;101156.92;;;-13.17;100.00
54872;BME280;43914;57.680;11.982;2024-01-06T07:22:04;101159.35;;;-13.17;100.00
54872;BME280;43914;57.680;11.982;2024-01-06T07:24:30;101160.55;;;-13.17;100.00
54872;BME280;43914;57.680;11.982;2024-01-06T07:26:56;101160.05;;;-13.18;100.00
54872;BME280;43914;57.680;11.982;2024-01-06T07:29:21;101160.92;;;-13.19;100.00
54872;BME280;43914;57.680;11.982;2024-01-06T07:31:47;101166.25;;;-13.17;100.00
54872;BME280;43914;57.680;11.982;2024-01-06T07:34:12;101168.14;;;-13.17;100.00
54872;BME280;43914;57.680;11.982;2024-01-06T07:36:38;101171.08;;;-13.18;100.00
54872;BME280;43914;57.680;11.982;2024-01-06T07:39:05;101172.13;;;-13.18;100.00
54872;BME280;43914;57.680;11.982;2024-01-06T07:41:31;101174.16;;;-13.16;100.00
54872;BME280;43914;57.680;11.982;2024-01-06T07:43:57;101175.89;;;-13.16;100.00
54872;BME280;43914;57.680;11.982;2024-01-06T07:46:23;101184.17;;;-13.16;100.00
54872;BME280;43914;57.680;11.982;2024-01-06T07:48:49;101191.23;;;-13.15;100.00
54872;BME280;43914;57.680;11.982;2024-01-06T07:51:14;101196.93;;;-13.16;100.00
54872;BME280;43914;57.680;11.982;2024-01-06T07:53:41;101202.80;;;-13.17;100.00
54872;BME280;43914;57.680;11.982;2024-01-06T07:56:07;101211.94;;;-13.17;100.00
54872;BME280;43914;57.680;11.982;2024-01-06T07:58:33;101220.02;;;-13.16;100.00
54872;BME280;43914;57.680;11.982;2024-01-06T08:00:59;101219.89;;;-13.18;100.00
54872;BME280;43914;57.680;11.982;2024-01-06T08:03:24;101224.34;;;-13.16;100.00
54872;BME280;43914;57.680;11.982;2024-01-06T08:05:50;101225.02;;;-13.16;100.00
54872;BME280;43914;57.680;11.982;2024-01-06T08:08:15;101226.05;;;-13.15;100.00
54872;BME280;43914;57.680;11.982;2024-01-06T08:10:42;101228.30;;;-13.15;100.00
54872;BME280;43914;57.680;11.982;2024-01-06T08:13:08;101235.38;;;-13.16;100.00
54872;BME280;43914;57.680;11.982;2024-01-06T08:15:34;101238.65;;;-13.15;100.00
54872;BME280;43914;57.680;11.982;2024-01-06T08:17:59;101235.88;;;-13.14;100.00
54872;BME280;43914;57.680;11.982;2024-01-06T08:20:25;101238.11;;;-13.14;100.00
54872;BME280;43914;57.680;11.982;2024-01-06T08:22:51;101241.02;;;-13.11;100.00
54872;BME280;43914;57.680;11.982;2024-01-06T08:25:17;101244.45;;;-13.10;100.00
54872;BME280;43914;57.680;11.982;2024-01-06T08:27:43;101250.30;;;-13.10;100.00
54872;BME280;43914;57.680;11.982;2024-01-06T08:30:09;101257.02;;;-13.09;100.00
54872;BME280;43914;57.680;11.982;2024-01-06T08:32:35;101263.05;;;-13.08;100.00
54872;BME280;43914;57.680;11.982;2024-01-06T08:35:00;101260.11;;;-13.08;100.00
54872;BME280;43914;57.680;11.982;2024-01-06T08:37:26;101263.71;;;-13.06;100.00
54872;BME280;43914;57.680;11.982;2024-01-06T08:39:51;101262.52;;;-13.06;100.00
54872;BME280;43914;57.680;11.982;2024-01-06T08:42:17;101265.92;;;-13.05;100.00
54872;BME280;43914;57.680;11.982;2024-01-06T08:44:43;101266.61;;;-13.03;100.00
54872;BME280;43914;57.680;11.982;2024-01-06T08:47:09;101265.73;;;-13.02;100.00
54872;BME280;43914;57.680;11.982;2024-01-06T08:49:35;101267.98;;;-13.02;100.00
54872;BME280;43914;57.680;11.982;2024-01-06T08:52:00;101268.62;;;-12.99;100.00
54872;BME280;43914;57.680;11.982;2024-01-06T08:54:26;101273.42;;;-12.98;100.00
54872;BME280;43914;57.680;11.982;2024-01-06T08:56:52;101274.95;;;-12.96;100.00
54872;BME280;43914;57.680;11.982;2024-01-06T08:59:17;101273.05;;;-12.95;100.00
54872;BME280;43914;57.680;11.982;2024-01-06T09:01:43;101273.73;;;-12.94;100.00
54872;BME280;43914;57.680;11.982;2024-01-06T09:04:08;101281.61;;;-12.91;100.00
54872;BME280;43914;57.680;11.982;2024-01-06T09:06:37;101279.86;;;-12.88;100.00
54872;BME280;43914;57.680;11.982;2024-01-06T09:09:02;101278.15;;;-12.88;100.00
54872;BME280;43914;57.680;11.982;2024-01-06T09:11:28;101280.71;;;-12.87;100.00
54872;BME280;43914;57.680;11.982;2024-01-06T09:13:53;101286.23;;;-12.86;100.00
54872;BME280;43914;57.680;11.982;2024-01-06T09:16:19;101292.05;;;-12.84;100.00
54872;BME280;43914;57.680;11.982;2024-01-06T09:18:45;101292.00;;;-12.81;100.00
54872;BME280;43914;57.680;11.982;2024-01-06T09:21:10;101297.66;;;-12.77;100.00
54872;BME280;43914;57.680;11.982;2024-01-06T09:23:36;101301.58;;;-12.73;100.00
54872;BME280;43914;57.680;11.982;2024-01-06T09:26:01;101304.30;;;-12.71;100.00
54872;BME280;43914;57.680;11.982;2024-01-06T09:28:28;101309.22;;;-12.65;100.00
54872;BME280;43914;57.680;11.982;2024-01-06T09:30:53;101311.61;;;-12.62;100.00
54872;BME280;43914;57.680;11.982;2024-01-06T09:33:22;101311.90;;;-12.58;100.00
54872;BME280;43914;57.680;11.982;2024-01-06T09:35:47;101313.14;;;-12.26;100.00
54872;BME280;43914;57.680;11.982;2024-01-06T09:38:13;101319.21;;;-12.16;100.00
54872;BME280;43914;57.680;11.982;2024-01-06T09:40:43;101324.39;;;-12.16;100.00
54872;BME280;43914;57.680;11.982;2024-01-06T09:43:10;101323.71;;;-12.17;100.00
54872;BME280;43914;57.680;11.982;2024-01-06T09:45:40;101323.41;;;-12.20;100.00
54872;BME280;43914;57.680;11.982;2024-01-06T09:48:13;101327.17;;;-12.17;100.00
54872;BME280;43914;57.680;11.982;2024-01-06T09:50:43;101323.52;;;-12.16;100.00
54872;BME280;43914;57.680;11.982;2024-01-06T09:53:12;101330.40;;;-12.14;100.00
54872;BME280;43914;57.680;11.982;2024-01-06T09:55:39;101327.60;;;-12.11;100.00
54872;BME280;43914;57.680;11.982;2024-01-06T09:58:05;101330.02;;;-12.11;100.00
54872;BME280;43914;57.680;11.982;2024-01-06T10:00:31;101332.18;;;-12.07;100.00
54872;BME280;43914;57.680;11.982;2024-01-06T10:02:57;101337.65;;;-12.02;100.00
54872;BME280;43914;57.680;11.982;2024-01-06T10:05:23;101338.81;;;-12.00;100.00
54872;BME280;43914;57.680;11.982;2024-01-06T10:07:48;101340.09;;;-11.84;100.00
54872;BME280;43914;57.680;11.982;2024-01-06T10:10:14;101344.27;;;-11.76;100.00
54872;BME280;43914;57.680;11.982;2024-01-06T10:12:41;101344.63;;;-11.76;100.00
54872;BME280;43914;57.680;11.982;2024-01-06T10:15:08;101351.86;;;-11.76;100.00
54872;BME280;43914;57.680;11.982;2024-01-06T10:17:40;101353.01;;;-11.72;100.00
54872;BME280;43914;57.680;11.982;2024-01-06T10:20:10;101358.80;;;-11.66;100.00
54872;BME280;43914;57.680;11.982;2024-01-06T10:22:37;101358.73;;;-11.62;100.00
54872;BME280;43914;57.680;11.982;2024-01-06T10:25:08;101360.18;;;-11.56;100.00
54872;BME280;43914;57.680;11.982;2024-01-06T10:27:35;101363.39;;;-11.51;100.00
54872;BME280;43914;57.680;11.982;2024-01-06T10:30:01;101369.19;;;-11.47;100.00
54872;BME280;43914;57.680;11.982;2024-01-06T10:32:27;101368.27;;;-11.45;100.00
54872;BME280;43914;57.680;11.982;2024-01-06T10:34:55;101368.41;;;-11.43;100.00
54872;BME280;43914;57.680;11.982;2024-01-06T10:37:21;101365.38;;;-11.37;100.00
54872;BME280;43914;57.680;11.982;2024-01-06T10:39:47;101365.77;;;-11.30;100.00
54872;BME280;43914;57.680;11.982;2024-01-06T10:42:13;101369.67;;;-11.26;100.00
54872;BME280;43914;57.680;11.982;2024-01-06T10:44:40;101371.34;;;-11.23;100.00
54872;BME280;43914;57.680;11.982;2024-01-06T10:47:07;101374.55;;;-11.18;100.00
54872;BME280;43914;57.680;11.982;2024-01-06T10:49:34;101378.08;;;-11.12;100.00
54872;BME280;43914;57.680;11.982;2024-01-06T10:52:04;101371.92;;;-11.08;100.00
54872;BME280;43914;57.680;11.982;2024-01-06T10:54:31;101376.20;;;-11.05;100.00
54872;BME280;43914;57.680;11.982;2024-01-06T10:56:59;101373.34;;;-11.00;100.00
54872;BME280;43914;57.680;11.982;2024-01-06T10:59:28;101371.52;;;-10.96;100.00
54872;BME280;43914;57.680;11.982;2024-01-06T11:01:58;101376.84;;;-10.94;100.00
54872;BME280;43914;57.680;11.982;2024-01-06T11:04:24;101376.98;;;-10.92;100.00
54872;BME280;43914;57.680;11.982;2024-01-06T11:06:51;101376.27;;;-10.90;100.00
54872;BME280;43914;57.680;11.982;2024-01-06T11:09:22;101386.87;;;-10.84;100.00
54872;BME280;43914;57.680;11.982;2024-01-06T11:11:50;101387.35;;;-10.82;100.00
54872;BME280;43914;57.680;11.982;2024-01-06T11:14:23;101389.41;;;-10.81;100.00
54872;BME280;43914;57.680;11.982;2024-01-06T11:16:53;101390.08;;;-10.80;100.00
54872;BME280;43914;57.680;11.982;2024-01-06T11:24:54;101386.75;;;-10.78;100.00
54872;BME280;43914;57.680;11.982;2024-01-06T11:27:26;101386.07;;;-10.79;100.00
54872;BME280;43914;57.680;11.982;2024-01-06T11:29:55;101386.48;;;-10.82;100.00
54872;BME280;43914;57.680;11.982;2024-01-06T11:35:06;101393.55;;;-10.81;100.00
54872;BME280;43914;57.680;11.982;2024-01-06T11:40:09;101398.66;;;-10.77;100.00
54872;BME280;43914;57.680;11.982;2024-01-06T11:42:36;101399.02;;;-10.76;100.00
54872;BME280;43914;57.680;11.982;2024-01-06T11:45:02;101397.63;;;-10.77;100.00
54872;BME280;43914;57.680;11.982;2024-01-06T11:47:29;101381.73;;;-10.87;100.00
54872;BME280;43914;57.680;11.982;2024-01-06T11:49:56;101398.89;;;-10.79;100.00
54872;BME280;43914;57.680;11.982;2024-01-06T11:52:24;101395.96;;;-10.80;100.00
54872;BME280;43914;57.680;11.982;2024-01-06T11:54:52;101392.89;;;-10.82;100.00
54872;BME280;43914;57.680;11.982;2024-01-06T11:57:19;101389.27;;;-10.83;100.00
54872;BME280;43914;57.680;11.982;2024-01-06T11:59:46;101388.58;;;-10.82;100.00
54872;BME280;43914;57.680;11.982;2024-01-06T12:02:12;101389.80;;;-10.83;100.00
54872;BME280;43914;57.680;11.982;2024-01-06T12:04:38;101388.11;;;-10.85;100.00
54872;BME280;43914;57.680;11.982;2024-01-06T12:07:09;101388.63;;;-10.85;100.00
54872;BME280;43914;57.680;11.982;2024-01-06T12:09:38;101392.64;;;-10.87;100.00
54872;BME280;43914;57.680;11.982;2024-01-06T12:12:06;101392.63;;;-10.86;100.00
54872;BME280;43914;57.680;11.982;2024-01-06T12:14:32;101389.85;;;-10.86;100.00
54872;BME280;43914;57.680;11.982;2024-01-06T12:16:59;101397.60;;;-10.84;100.00
54872;BME280;43914;57.680;11.982;2024-01-06T12:19:32;101402.65;;;-10.86;100.00
54872;BME280;43914;57.680;11.982;2024-01-06T12:21:58;101405.09;;;-10.86;100.00
54872;BME280;43914;57.680;11.982;2024-01-06T12:24:23;101408.79;;;-10.89;100.00
54872;BME280;43914;57.680;11.982;2024-01-06T12:26:49;101411.89;;;-10.89;100.00